Terminal Aerodrome Forecast
Issued by NWS Nashville, TN

Home | Current Version | Previous Version | Text Only | Print | Product List | Glossary On
Versions: 1 2 3 4 5 6 7 8 9 10 11 12 13 14 15 16 17 18 19
000
FTUS44 KOHX 020520
TAFCSV
TAF
KCSV 020520Z 0206/0306 22004KT P6SM SCT100
      TEMPO 0209/0213 00000KT 4SM BR BKN015
     FM021400 13005KT P6SM VCSH SCT025 BKN050
     FM021900 22007KT 6SM -SHRA BR BKN020 OVC040 PROB30 0222/0302
      2SM TSRA BKN008CB OVC015=

USA.gov is the U.S. government's official web portal to all federal, state and local government web resources and services.